createdAt,value
2023-05-10T00:01:00.795Z,55.48
2023-05-10T00:02:03.321Z,55.95
2023-05-10T00:03:06.185Z,56.22
2023-05-10T00:04:08.720Z,56.17
2023-05-10T00:05:11.250Z,56.22
2023-05-10T00:06:13.631Z,56.09
2023-05-10T00:07:18.082Z,56.23
2023-05-10T00:08:20.640Z,56.55
2023-05-10T00:09:22.795Z,56.68
2023-05-10T00:10:25.155Z,56.55
2023-05-10T00:11:27.334Z,56.36
2023-05-10T00:12:29.469Z,56.04
2023-05-10T00:13:32.840Z,55.85
2023-05-10T00:14:35.019Z,56.17
2023-05-10T00:15:37.386Z,56.65
2023-05-10T00:16:40.156Z,56.70
2023-05-10T00:17:42.394Z,56.57
2023-05-10T00:18:44.816Z,56.32
2023-05-10T00:19:47.044Z,56.05
2023-05-10T00:20:49.893Z,55.72
2023-05-10T00:21:52.290Z,55.82
2023-05-10T00:22:54.484Z,55.51
2023-05-10T00:23:56.894Z,55.67
2023-05-10T00:24:59.813Z,56.19
2023-05-10T00:26:02.145Z,56.17
2023-05-10T00:27:04.996Z,56.99
2023-05-10T00:28:07.344Z,57.34
2023-05-10T00:29:09.741Z,57.25
2023-05-10T00:30:12.029Z,57.88
2023-05-10T00:31:15.628Z,57.95
2023-05-10T00:32:17.999Z,57.72
2023-05-10T00:33:20.330Z,57.45
2023-05-10T00:34:23.854Z,57.09
2023-05-10T00:35:27.031Z,57.14
2023-05-10T00:36:29.687Z,57.70
2023-05-10T00:37:32.074Z,57.78
2023-05-10T00:38:35.067Z,57.96
2023-05-10T00:39:37.442Z,57.59
2023-05-10T00:40:39.698Z,57.44
2023-05-10T00:41:47.000Z,57.24
2023-05-10T00:42:49.344Z,57.19
2023-05-10T00:43:51.914Z,57.55
2023-05-10T00:44:54.116Z,58.11
2023-05-10T00:45:56.981Z,58.43
2023-05-10T00:47:00.307Z,58.60
2023-05-10T00:48:03.806Z,58.82
2023-05-10T00:49:07.181Z,58.72
2023-05-10T00:50:10.296Z,58.20
2023-05-10T00:51:12.544Z,57.98
2023-05-10T00:52:15.172Z,58.35
2023-05-10T00:53:17.939Z,58.62
2023-05-10T00:54:20.427Z,58.65
2023-05-10T00:55:22.706Z,59.14
2023-05-10T00:56:26.226Z,59.53
2023-05-10T00:57:28.406Z,59.57
2023-05-10T00:58:31.935Z,59.39
2023-05-10T00:59:34.544Z,60.05
2023-05-10T01:00:39.549Z,59.93
2023-05-10T01:01:42.054Z,59.97
2023-05-10T01:02:45.049Z,60.17
2023-05-10T01:03:48.202Z,59.67
2023-05-10T01:04:53.142Z,59.41
2023-05-10T01:05:56.192Z,59.22
2023-05-10T01:06:58.814Z,58.78
2023-05-10T01:08:01.028Z,59.27
2023-05-10T01:09:03.195Z,59.62
2023-05-10T01:10:07.820Z,59.33
2023-05-10T01:11:10.520Z,59.21
2023-05-10T01:12:13.381Z,59.47
2023-05-10T01:13:25.933Z,59.36
2023-05-10T01:14:29.330Z,59.32
2023-05-10T01:15:32.402Z,59.69
2023-05-10T01:16:39.168Z,60.03
2023-05-10T01:17:45.348Z,60.65
2023-05-10T01:18:48.052Z,60.42
2023-05-10T01:19:50.912Z,60.53
2023-05-10T01:21:10.736Z,60.13
2023-05-10T01:23:24.239Z,59.76
2023-05-10T01:24:52.074Z,59.99
2023-05-10T01:26:08.822Z,60.38
2023-05-10T01:27:26.232Z,60.45
2023-05-10T01:28:34.161Z,60.52
2023-05-10T01:30:14.631Z,60.53
2023-05-10T01:32:09.172Z,60.74
2023-05-10T01:33:17.207Z,60.40
2023-05-10T01:34:35.197Z,60.47
2023-05-10T01:35:48.816Z,60.66
2023-05-10T01:37:14.304Z,60.50
2023-05-10T01:38:43.276Z,60.95
2023-05-10T01:40:06.949Z,61.08
2023-05-10T01:41:16.150Z,61.25
2023-05-10T01:42:27.512Z,61.73
2023-05-10T01:43:43.178Z,62.24
2023-05-10T01:45:11.814Z,62.10
2023-05-10T01:46:29.102Z,61.53
2023-05-10T01:47:51.375Z,61.57
2023-05-10T01:48:56.706Z,61.73
2023-05-10T01:50:04.086Z,62.06
2023-05-10T01:51:07.802Z,61.98
2023-05-10T01:52:13.578Z,62.29
2023-05-10T01:53:20.169Z,63.01
2023-05-10T01:54:24.334Z,63.08
2023-05-10T01:55:31.736Z,63.15
2023-05-10T01:56:37.114Z,63.31
2023-05-10T01:57:42.122Z,63.75
2023-05-10T01:58:48.285Z,63.52
2023-05-10T01:59:51.975Z,63.54
2023-05-10T02:00:55.164Z,63.71
2023-05-10T02:02:00.506Z,63.94
2023-05-10T02:03:11.517Z,64.16
2023-05-10T02:04:17.878Z,63.86
2023-05-10T02:05:22.649Z,64.22
2023-05-10T02:06:27.652Z,63.73
2023-05-10T02:07:31.002Z,63.69
2023-05-10T02:08:36.860Z,63.23
2023-05-10T02:09:39.563Z,62.89
2023-05-10T02:10:43.931Z,63.24
2023-05-10T02:11:48.152Z,63.06
2023-05-10T02:12:52.399Z,62.67
2023-05-10T02:13:57.098Z,62.38
2023-05-10T02:15:06.715Z,62.84
2023-05-10T02:16:09.698Z,63.08
2023-05-10T02:17:12.853Z,62.88
2023-05-10T02:18:17.216Z,63.28
2023-05-10T02:19:20.974Z,63.02
2023-05-10T02:20:25.511Z,62.82
2023-05-10T02:21:30.119Z,63.45
2023-05-10T02:22:32.828Z,63.60
2023-05-10T02:23:36.326Z,63.57
2023-05-10T02:24:40.576Z,63.60
2023-05-10T02:25:44.689Z,63.43
2023-05-10T02:26:49.362Z,63.78
2023-05-10T02:27:54.993Z,63.84
2023-05-10T02:28:59.607Z,63.87
2023-05-10T02:30:02.580Z,64.34
2023-05-10T02:31:06.246Z,64.28
2023-05-10T02:32:11.020Z,64.10
2023-05-10T02:33:15.352Z,64.23
2023-05-10T02:34:18.233Z,64.06
2023-05-10T02:35:23.377Z,64.02
2023-05-10T02:36:28.442Z,64.24
2023-05-10T02:37:35.488Z,64.05
2023-05-10T02:38:41.102Z,64.13
2023-05-10T02:39:46.498Z,64.28
2023-05-10T02:40:49.325Z,63.89
2023-05-10T02:41:53.373Z,63.93
2023-05-10T02:42:58.224Z,63.39
2023-05-10T02:44:02.545Z,63.35
2023-05-10T02:45:12.030Z,62.97
2023-05-10T02:46:14.476Z,62.73
2023-05-10T02:47:17.039Z,62.72
2023-05-10T02:48:19.497Z,62.62
2023-05-10T02:49:21.894Z,61.94
2023-05-10T02:50:31.095Z,62.59
2023-05-10T02:51:37.199Z,62.48
2023-05-10T02:52:50.739Z,62.75
2023-05-10T02:53:55.066Z,62.56
2023-05-10T02:55:01.853Z,62.49
2023-05-10T02:56:09.130Z,62.69
2023-05-10T02:57:17.150Z,62.46
2023-05-10T02:58:22.136Z,62.49
2023-05-10T02:59:24.811Z,62.18
2023-05-10T03:00:27.116Z,62.29
2023-05-10T03:01:30.501Z,62.38
2023-05-10T03:02:33.952Z,62.21
2023-05-10T03:03:36.440Z,62.15
2023-05-10T03:04:39.333Z,62.44
2023-05-10T03:05:41.764Z,63.13
2023-05-10T03:06:44.878Z,63.35
2023-05-10T03:07:48.397Z,63.63
2023-05-10T03:08:50.770Z,63.60
2023-05-10T03:09:53.347Z,63.87
2023-05-10T03:11:11.355Z,63.27
2023-05-10T03:12:53.620Z,63.41
2023-05-10T03:14:17.762Z,63.72
2023-05-10T03:15:32.700Z,63.44
2023-05-10T03:16:47.834Z,64.18
2023-05-10T03:18:02.914Z,63.95
2023-05-10T03:19:21.084Z,63.75
2023-05-10T03:20:32.586Z,63.71
2023-05-10T03:21:39.036Z,63.85
2023-05-10T03:22:47.934Z,63.92
2023-05-10T03:23:57.543Z,64.38
2023-05-10T03:25:06.783Z,63.94
2023-05-10T03:26:10.960Z,63.42
2023-05-10T03:27:15.334Z,63.08
2023-05-10T03:28:20.044Z,63.18
2023-05-10T03:29:23.954Z,63.08
2023-05-10T03:30:26.801Z,63.08
2023-05-10T03:31:29.416Z,63.29
2023-05-10T03:32:33.523Z,63.52
2023-05-10T03:33:36.314Z,63.73
2023-05-10T03:34:43.791Z,63.93
2023-05-10T03:35:46.783Z,63.62
2023-05-10T03:36:50.572Z,63.56
2023-05-10T03:37:53.296Z,63.72
2023-05-10T03:38:56.302Z,63.93
2023-05-10T03:39:58.667Z,63.95
2023-05-10T03:41:00.968Z,63.78
2023-05-10T03:42:03.759Z,64.42
2023-05-10T03:43:07.085Z,64.59
2023-05-10T03:44:09.320Z,64.06
2023-05-10T03:45:11.856Z,63.47
2023-05-10T03:46:14.090Z,63.34
2023-05-10T03:47:17.283Z,63.26
2023-05-10T03:48:19.522Z,63.50
2023-05-10T03:49:21.769Z,63.54
2023-05-10T03:50:24.533Z,63.25
2023-05-10T03:51:29.341Z,62.94
2023-05-10T03:52:31.594Z,63.41
2023-05-10T03:53:33.853Z,63.97
2023-05-10T03:54:36.290Z,64.13
2023-05-10T03:55:38.530Z,64.43
2023-05-10T03:56:41.116Z,64.26
2023-05-10T03:57:43.447Z,64.29
2023-05-10T03:58:45.954Z,64.19
2023-05-10T03:59:48.146Z,64.47
2023-05-10T04:00:50.451Z,64.12
2023-05-10T04:01:52.717Z,63.97
2023-05-10T04:02:55.119Z,64.03
2023-05-10T04:03:57.526Z,63.94
2023-05-10T04:04:59.804Z,63.63
2023-05-10T04:06:03.248Z,63.54
2023-05-10T04:07:05.733Z,63.84
2023-05-10T04:08:08.162Z,63.65
2023-05-10T04:09:10.653Z,63.58
2023-05-10T04:10:13.707Z,62.92
2023-05-10T04:11:16.398Z,62.57
2023-05-10T04:12:18.614Z,62.95
2023-05-10T04:13:20.912Z,62.62
2023-05-10T04:14:23.447Z,63.28
2023-05-10T04:15:25.628Z,63.59
2023-05-10T04:16:27.991Z,63.33
2023-05-10T04:17:30.630Z,63.40
2023-05-10T04:18:32.992Z,63.52
2023-05-10T04:19:35.366Z,63.42
2023-05-10T04:20:37.773Z,63.56
2023-05-10T04:21:39.990Z,63.37
2023-05-10T04:22:42.428Z,63.18
2023-05-10T04:23:44.801Z,62.73
2023-05-10T04:24:46.967Z,63.14
2023-05-10T04:25:49.469Z,62.80
2023-05-10T04:26:52.056Z,62.69
2023-05-10T04:27:54.446Z,62.61
2023-05-10T04:28:56.633Z,62.70
2023-05-10T04:29:59.433Z,62.77
2023-05-10T04:31:06.375Z,62.37
2023-05-10T04:32:09.055Z,62.32
2023-05-10T04:33:11.450Z,62.58
2023-05-10T04:34:13.644Z,62.40
2023-05-10T04:35:16.030Z,63.04
2023-05-10T04:36:18.154Z,62.74
2023-05-10T04:37:22.263Z,62.70
2023-05-10T04:38:25.225Z,62.64
2023-05-10T04:39:27.381Z,62.25
2023-05-10T04:40:30.064Z,61.94
2023-05-10T04:41:32.382Z,61.78
2023-05-10T04:42:34.809Z,61.62
2023-05-10T04:43:37.907Z,61.60
2023-05-10T04:44:40.112Z,61.46
2023-05-10T04:45:42.333Z,62.01
2023-05-10T04:46:44.802Z,61.73
2023-05-10T04:47:47.132Z,61.65
2023-05-10T04:48:49.346Z,61.43
2023-05-10T04:49:51.674Z,61.55
2023-05-10T04:50:53.963Z,61.11
2023-05-10T04:51:56.456Z,60.82
2023-05-10T04:52:59.078Z,61.22
2023-05-10T04:54:06.547Z,61.20
2023-05-10T04:55:10.560Z,61.49
2023-05-10T04:56:12.958Z,61.33
2023-05-10T04:57:15.181Z,60.80
2023-05-10T04:58:17.546Z,60.51
2023-05-10T04:59:19.766Z,60.87
2023-05-10T05:00:22.085Z,60.75
2023-05-10T05:01:24.521Z,60.44
2023-05-10T05:02:26.797Z,60.87
2023-05-10T05:03:29.232Z,60.69
2023-05-10T05:04:32.161Z,60.33
2023-05-10T05:05:34.555Z,60.44
2023-05-10T05:06:36.818Z,60.60
2023-05-10T05:07:39.663Z,60.34
2023-05-10T05:08:41.913Z,60.56
2023-05-10T05:09:44.101Z,60.47
2023-05-10T05:10:46.336Z,60.05
2023-05-10T05:11:48.513Z,59.66
2023-05-10T05:12:50.909Z,59.72
2023-05-10T05:13:53.329Z,59.87
2023-05-10T05:14:55.496Z,59.89
2023-05-10T05:15:57.968Z,59.40
2023-05-10T05:17:00.143Z,59.25
2023-05-10T05:18:02.373Z,58.68
2023-05-10T05:19:04.820Z,58.44
2023-05-10T05:20:08.331Z,58.22
2023-05-10T05:21:20.474Z,58.41
2023-05-10T05:22:28.493Z,58.78
2023-05-10T05:23:31.343Z,58.23
2023-05-10T05:24:39.789Z,58.15
2023-05-10T05:25:43.005Z,58.34
2023-05-10T05:26:45.396Z,58.45
2023-05-10T05:27:47.583Z,58.07
2023-05-10T05:28:52.917Z,57.93
2023-05-10T05:29:55.654Z,57.96
2023-05-10T05:30:57.887Z,57.60
2023-05-10T05:32:00.459Z,57.89
2023-05-10T05:33:02.980Z,57.57
2023-05-10T05:34:05.468Z,57.57
2023-05-10T05:35:08.192Z,57.46
2023-05-10T05:36:10.392Z,57.24
2023-05-10T05:37:17.294Z,57.15
2023-05-10T05:38:19.727Z,56.87
2023-05-10T05:39:22.184Z,56.44
2023-05-10T05:40:24.387Z,56.07
2023-05-10T05:41:27.039Z,55.75
2023-05-10T05:42:29.282Z,55.49
2023-05-10T05:43:35.043Z,55.47
2023-05-10T05:44:39.544Z,55.10
2023-05-10T05:45:41.834Z,55.17
2023-05-10T05:46:44.230Z,55.00
2023-05-10T05:47:46.458Z,54.91
2023-05-10T05:48:49.003Z,53.92
2023-05-10T05:49:51.256Z,53.00
2023-05-10T05:50:57.564Z,52.34
2023-05-10T05:52:04.423Z,50.97
2023-05-10T05:53:06.586Z,49.49
2023-05-10T05:54:08.996Z,47.82
2023-05-10T05:55:11.298Z,47.02
2023-05-10T05:56:13.563Z,46.62
2023-05-10T05:57:16.000Z,46.84
2023-05-10T05:58:18.359Z,46.16
2023-05-10T05:59:20.724Z,44.93
2023-05-10T06:00:23.779Z,43.56
2023-05-10T06:01:26.188Z,43.93
2023-05-10T06:02:28.511Z,43.62
2023-05-10T06:03:31.076Z,42.31
2023-05-10T06:04:33.768Z,42.43
2023-05-10T06:05:35.978Z,42.54
2023-05-10T06:06:38.165Z,42.22
2023-05-10T06:07:43.207Z,41.88
2023-05-10T06:08:45.429Z,41.43
2023-05-10T06:09:48.084Z,41.55
2023-05-10T06:10:50.301Z,42.48
2023-05-10T06:11:52.506Z,42.35
2023-05-10T06:12:55.100Z,42.85
2023-05-10T06:13:57.317Z,42.42
2023-05-10T06:14:59.802Z,42.33
2023-05-10T06:16:03.765Z,41.74
2023-05-10T06:17:06.210Z,41.35
2023-05-10T06:18:08.728Z,41.46
2023-05-10T06:19:11.101Z,41.41
2023-05-10T06:20:14.114Z,41.04
2023-05-10T06:21:17.243Z,41.29
2023-05-10T06:22:19.648Z,40.04
2023-05-10T06:23:23.180Z,39.52
2023-05-10T06:24:25.864Z,38.65
2023-05-10T06:25:28.141Z,39.32
2023-05-10T06:26:30.596Z,38.66
2023-05-10T06:27:32.811Z,38.67
2023-05-10T06:28:35.047Z,37.86
2023-05-10T06:29:37.517Z,37.33
2023-05-10T06:30:40.878Z,38.47
2023-05-10T06:31:43.107Z,37.99
2023-05-10T06:32:46.216Z,37.58
2023-05-10T06:33:49.063Z,37.79
2023-05-10T06:34:51.441Z,38.02
2023-05-10T06:35:53.656Z,37.10
2023-05-10T06:36:56.027Z,36.70
2023-05-10T06:37:58.201Z,37.60
2023-05-10T06:39:00.588Z,36.48
2023-05-10T06:40:03.151Z,35.75
2023-05-10T06:41:05.470Z,35.49
2023-05-10T06:42:07.715Z,36.28
2023-05-10T06:43:10.887Z,36.02
2023-05-10T06:44:13.969Z,35.01
2023-05-10T06:45:17.736Z,34.34
2023-05-10T06:46:20.269Z,34.90
2023-05-10T06:47:23.103Z,36.11
2023-05-10T06:48:25.333Z,36.18
2023-05-10T06:49:27.603Z,35.66
2023-05-10T06:50:30.073Z,36.48
2023-05-10T06:51:32.520Z,35.44
2023-05-10T06:52:35.110Z,35.65
2023-05-10T06:53:37.492Z,35.74
2023-05-10T06:54:39.815Z,36.40
2023-05-10T06:55:42.206Z,36.96
2023-05-10T06:56:45.692Z,37.64
2023-05-10T06:57:48.616Z,37.09
2023-05-10T06:58:50.862Z,36.40
2023-05-10T06:59:53.732Z,35.48
2023-05-10T07:00:56.393Z,34.61
2023-05-10T07:01:58.989Z,33.62
2023-05-10T07:03:01.446Z,34.04
2023-05-10T07:04:03.732Z,33.99
2023-05-10T07:05:06.975Z,33.80
2023-05-10T07:06:15.649Z,34.51
2023-05-10T07:07:20.868Z,35.14
2023-05-10T07:08:23.034Z,34.91
2023-05-10T07:09:25.463Z,34.48
2023-05-10T07:10:27.941Z,34.57
2023-05-10T07:11:30.225Z,34.79
2023-05-10T07:12:32.526Z,34.42
2023-05-10T07:13:35.828Z,34.30
2023-05-10T07:14:38.293Z,34.03
2023-05-10T07:15:40.875Z,33.56
2023-05-10T07:16:43.257Z,33.09
2023-05-10T07:17:46.478Z,33.19
2023-05-10T07:18:49.102Z,34.17
2023-05-10T07:19:51.320Z,34.96
2023-05-10T07:20:53.920Z,35.27
2023-05-10T07:21:56.321Z,34.36
2023-05-10T07:22:58.484Z,33.25
2023-05-10T07:24:01.850Z,32.75
2023-05-10T07:25:04.806Z,33.39
2023-05-10T07:26:07.248Z,33.20
2023-05-10T07:27:10.111Z,32.83
2023-05-10T07:28:12.595Z,32.19
2023-05-10T07:29:14.840Z,32.08
2023-05-10T07:30:17.083Z,32.44
2023-05-10T07:31:19.754Z,32.43
2023-05-10T07:32:22.607Z,31.77
2023-05-10T07:33:24.862Z,31.75
2023-05-10T07:34:27.079Z,31.88
2023-05-10T07:35:29.245Z,31.83
2023-05-10T07:36:32.148Z,31.37
2023-05-10T07:37:34.403Z,31.16
2023-05-10T07:38:38.936Z,31.00
2023-05-10T07:39:42.529Z,31.17
2023-05-10T07:40:45.146Z,31.39
2023-05-10T07:41:47.634Z,30.60
2023-05-10T07:42:49.998Z,30.28
2023-05-10T07:43:52.451Z,30.38
2023-05-10T07:44:54.644Z,30.49
2023-05-10T07:45:58.737Z,31.10
2023-05-10T07:47:00.985Z,31.02
2023-05-10T07:48:03.310Z,32.68
2023-05-10T07:49:05.849Z,32.93
2023-05-10T07:50:08.829Z,33.50
2023-05-10T07:51:11.892Z,33.81
2023-05-10T07:52:14.685Z,33.76
2023-05-10T07:53:17.100Z,33.74
2023-05-10T07:54:19.482Z,33.08
2023-05-10T07:55:22.551Z,32.33
2023-05-10T07:56:26.107Z,31.51
2023-05-10T07:57:28.308Z,31.14
2023-05-10T07:58:31.146Z,30.90
2023-05-10T07:59:34.058Z,30.48
2023-05-10T08:00:36.447Z,31.15
2023-05-10T08:01:38.835Z,31.09
2023-05-10T08:02:41.962Z,31.05
2023-05-10T08:03:44.507Z,30.94
2023-05-10T08:04:50.640Z,30.35
2023-05-10T08:05:52.853Z,29.53
2023-05-10T08:06:55.297Z,29.91
2023-05-10T08:07:57.658Z,29.27
2023-05-10T08:09:00.133Z,30.67
2023-05-10T08:10:03.820Z,30.88
2023-05-10T08:11:06.004Z,30.28
2023-05-10T08:12:08.536Z,30.07
2023-05-10T08:13:12.401Z,30.92
2023-05-10T08:14:14.709Z,30.95
2023-05-10T08:15:17.229Z,30.28
2023-05-10T08:16:20.386Z,30.04
2023-05-10T08:17:23.474Z,29.70
2023-05-10T08:18:27.201Z,29.10
2023-05-10T08:19:29.485Z,29.20
2023-05-10T08:20:31.719Z,29.25
2023-05-10T08:21:34.215Z,29.47
2023-05-10T08:22:36.779Z,29.60
2023-05-10T08:23:40.364Z,30.75
2023-05-10T08:24:43.040Z,32.85
2023-05-10T08:25:45.380Z,32.74
2023-05-10T08:26:48.670Z,31.80
2023-05-10T08:27:51.716Z,31.61
2023-05-10T08:28:53.975Z,31.50
2023-05-10T08:29:56.454Z,30.26
2023-05-10T08:30:58.842Z,30.46
2023-05-10T08:32:02.029Z,29.92
2023-05-10T08:33:09.229Z,30.07
2023-05-10T08:34:11.507Z,29.95
2023-05-10T08:35:13.771Z,29.78
2023-05-10T08:36:20.692Z,29.46
2023-05-10T08:37:24.906Z,29.46
2023-05-10T08:38:27.182Z,29.95
2023-05-10T08:39:30.923Z,29.65
2023-05-10T08:40:33.240Z,30.28
2023-05-10T08:41:39.939Z,30.21
2023-05-10T08:42:51.755Z,29.47
2023-05-10T08:43:54.993Z,30.24
2023-05-10T08:44:58.383Z,30.46
2023-05-10T08:46:03.976Z,31.24
2023-05-10T08:47:08.070Z,31.18
2023-05-10T08:48:11.434Z,31.60
2023-05-10T08:49:19.600Z,31.74
2023-05-10T08:50:22.993Z,31.92
2023-05-10T08:51:27.862Z,32.16
2023-05-10T08:52:31.474Z,32.88
2023-05-10T08:53:37.523Z,32.12
2023-05-10T08:54:40.097Z,31.45
2023-05-10T08:55:43.767Z,31.00
2023-05-10T08:56:47.372Z,30.70
2023-05-10T08:57:51.997Z,30.51
2023-05-10T08:58:54.211Z,30.64
2023-05-10T08:59:56.394Z,30.02
2023-05-10T09:00:59.324Z,29.45
2023-05-10T09:02:02.512Z,29.29
2023-05-10T09:03:07.169Z,28.79
2023-05-10T09:04:09.502Z,28.11
2023-05-10T09:05:11.908Z,27.82
2023-05-10T09:06:14.761Z,28.44
2023-05-10T09:07:18.090Z,28.60
2023-05-10T09:08:21.367Z,28.69
2023-05-10T09:09:25.336Z,28.72
2023-05-10T09:10:29.050Z,29.38
2023-05-10T09:11:32.513Z,29.83
2023-05-10T09:12:34.739Z,29.76
2023-05-10T09:13:37.621Z,29.85
2023-05-10T09:14:40.554Z,29.68
2023-05-10T09:15:44.323Z,29.15
2023-05-10T09:16:47.014Z,28.55
2023-05-10T09:17:50.489Z,28.63
2023-05-10T09:18:53.396Z,28.57
2023-05-10T09:20:04.999Z,28.48
2023-05-10T09:21:07.253Z,28.54
2023-05-10T09:22:10.935Z,29.25
2023-05-10T09:23:13.182Z,30.09
2023-05-10T09:24:15.403Z,29.88
2023-05-10T09:25:18.331Z,29.53
2023-05-10T09:26:24.582Z,29.00
2023-05-10T09:27:29.782Z,28.65
2023-05-10T09:28:51.034Z,28.58
2023-05-10T09:29:55.399Z,29.05
2023-05-10T09:30:57.710Z,29.42
2023-05-10T09:32:00.202Z,29.52
2023-05-10T09:33:02.921Z,29.87
2023-05-10T09:34:05.557Z,29.87
2023-05-10T09:35:19.330Z,28.94
2023-05-10T09:36:21.682Z,28.85
2023-05-10T09:37:30.798Z,28.44
2023-05-10T09:38:49.810Z,28.73
2023-05-10T09:39:56.026Z,28.46
2023-05-10T09:40:58.768Z,28.49
2023-05-10T09:42:04.825Z,28.96
2023-05-10T09:43:08.692Z,28.94
2023-05-10T09:44:11.063Z,29.08
2023-05-10T09:45:13.270Z,29.41
2023-05-10T09:46:18.921Z,29.31
2023-05-10T09:47:21.320Z,29.51
2023-05-10T09:48:24.863Z,29.67
2023-05-10T09:49:27.837Z,29.85
2023-05-10T09:50:31.208Z,30.12
2023-05-10T09:51:36.167Z,29.65
2023-05-10T09:53:00.318Z,29.78
2023-05-10T09:54:16.642Z,29.36
2023-05-10T09:55:21.553Z,30.25
2023-05-10T09:56:44.073Z,29.48
2023-05-10T09:57:48.991Z,29.09
2023-05-10T09:59:04.022Z,29.24
2023-05-10T10:00:07.351Z,29.10
2023-05-10T10:01:15.718Z,29.13
2023-05-10T10:02:18.132Z,29.12
2023-05-10T10:03:22.171Z,29.55
2023-05-10T10:04:25.130Z,30.43
2023-05-10T10:05:31.872Z,30.79
2023-05-10T10:06:38.969Z,30.58
2023-05-10T10:07:41.447Z,29.96
2023-05-10T10:08:43.875Z,29.82
2023-05-10T10:09:46.768Z,29.84
2023-05-10T10:10:50.490Z,30.02
2023-05-10T10:11:53.530Z,30.07
2023-05-10T10:12:56.409Z,29.75
2023-05-10T10:13:59.204Z,30.78
2023-05-10T10:15:02.463Z,31.43
2023-05-10T10:16:05.136Z,31.08
2023-05-10T10:17:09.150Z,30.88
2023-05-10T10:18:18.442Z,30.48
2023-05-10T10:19:21.633Z,30.20
2023-05-10T10:20:25.010Z,30.04
2023-05-10T10:21:27.927Z,30.09
2023-05-10T10:22:30.426Z,30.50
2023-05-10T10:23:32.812Z,30.42
2023-05-10T10:24:35.176Z,29.93
2023-05-10T10:25:39.000Z,30.25
2023-05-10T10:26:43.811Z,30.78
2023-05-10T10:27:52.021Z,30.72
2023-05-10T10:29:41.594Z,30.99
2023-05-10T10:30:48.194Z,31.47
2023-05-10T10:32:02.871Z,31.47
2023-05-10T10:33:32.043Z,32.14
2023-05-10T10:34:34.976Z,31.84
2023-05-10T10:35:37.681Z,31.96
2023-05-10T10:36:47.547Z,32.01
2023-05-10T10:37:51.845Z,30.89
2023-05-10T10:39:01.571Z,30.87
2023-05-10T10:40:33.592Z,31.45
2023-05-10T10:41:41.841Z,31.70
2023-05-10T10:42:50.945Z,31.49
2023-05-10T10:44:30.336Z,31.37
2023-05-10T10:45:32.808Z,31.71
2023-05-10T10:46:35.472Z,31.44
2023-05-10T10:47:38.650Z,31.94
2023-05-10T10:48:42.735Z,31.41
2023-05-10T10:50:08.996Z,30.97
2023-05-10T10:51:12.914Z,31.78
2023-05-10T10:52:34.616Z,31.89
2023-05-10T10:53:38.188Z,31.43
2023-05-10T10:54:48.038Z,30.14
2023-05-10T10:55:50.223Z,30.23
2023-05-10T10:57:12.769Z,30.34
2023-05-10T10:58:35.263Z,30.71
2023-05-10T10:59:42.013Z,30.44
2023-05-10T11:00:46.358Z,30.58
2023-05-10T11:01:53.125Z,30.48
2023-05-10T11:03:03.743Z,30.92
2023-05-10T11:04:05.949Z,30.81
2023-05-10T11:05:34.107Z,30.54
2023-05-10T11:06:37.193Z,30.38
2023-05-10T11:07:59.480Z,30.65
2023-05-10T11:09:09.628Z,30.02
2023-05-10T11:10:12.383Z,30.36
2023-05-10T11:11:16.207Z,30.72
2023-05-10T11:12:18.440Z,30.55
2023-05-10T11:13:31.019Z,31.10
2023-05-10T11:14:33.292Z,31.22
2023-05-10T11:15:38.533Z,30.90
2023-05-10T11:16:45.126Z,30.83
2023-05-10T11:17:53.012Z,30.62
2023-05-10T11:18:55.330Z,30.29
2023-05-10T11:20:25.889Z,30.23
2023-05-10T11:21:28.235Z,30.54
2023-05-10T11:22:51.961Z,30.90
2023-05-10T11:23:59.250Z,30.87
2023-05-10T11:25:02.306Z,30.90
2023-05-10T11:26:05.886Z,31.13
2023-05-10T11:27:08.193Z,31.06
2023-05-10T11:28:11.288Z,30.73
2023-05-10T11:29:14.701Z,29.65
2023-05-10T11:30:18.404Z,29.26
2023-05-10T11:31:21.936Z,29.67
2023-05-10T11:32:24.494Z,29.68
2023-05-10T11:33:27.051Z,29.78
2023-05-10T11:34:35.843Z,29.70
2023-05-10T11:35:43.041Z,29.23
2023-05-10T11:36:52.695Z,29.64
2023-05-10T11:37:55.062Z,29.56
2023-05-10T11:38:57.979Z,30.07
2023-05-10T11:40:00.188Z,30.13
2023-05-10T11:41:02.406Z,30.20
2023-05-10T11:42:04.817Z,30.43
2023-05-10T11:43:07.441Z,30.17
2023-05-10T11:44:10.491Z,30.15
2023-05-10T11:45:12.735Z,29.89
2023-05-10T11:46:14.935Z,29.63
2023-05-10T11:47:17.275Z,29.74
2023-05-10T11:48:23.261Z,30.03
2023-05-10T11:49:26.985Z,30.26
2023-05-10T11:50:29.785Z,30.12
2023-05-10T11:51:36.138Z,29.90
2023-05-10T11:52:38.764Z,29.92
2023-05-10T11:53:40.929Z,30.09
2023-05-10T11:54:55.913Z,29.67
2023-05-10T11:56:07.430Z,29.89
2023-05-10T11:57:09.742Z,30.23
2023-05-10T11:58:12.158Z,30.18
2023-05-10T11:59:15.872Z,29.71
2023-05-10T12:00:18.497Z,30.05
2023-05-10T12:01:22.454Z,30.89
2023-05-10T12:02:25.263Z,30.96
2023-05-10T12:03:29.234Z,30.71
2023-05-10T12:04:32.214Z,31.01
2023-05-10T12:05:35.255Z,31.35
2023-05-10T12:06:41.514Z,31.29
2023-05-10T12:07:43.851Z,30.58
2023-05-10T12:08:47.751Z,30.73
2023-05-10T12:10:05.024Z,30.46
2023-05-10T12:11:09.479Z,30.59
2023-05-10T12:12:17.278Z,30.00
2023-05-10T12:13:21.546Z,30.90
2023-05-10T12:14:23.924Z,31.30
2023-05-10T12:15:26.550Z,30.90
2023-05-10T12:16:30.534Z,31.35
2023-05-10T12:17:33.039Z,30.91
2023-05-10T12:18:35.325Z,30.36
2023-05-10T12:19:40.557Z,30.91
2023-05-10T12:20:42.970Z,30.42
2023-05-10T12:21:45.519Z,30.33
2023-05-10T12:22:48.690Z,30.60
2023-05-10T12:23:56.593Z,30.52
2023-05-10T12:24:59.808Z,30.36
2023-05-10T12:26:06.050Z,30.59
2023-05-10T12:27:11.177Z,30.15
2023-05-10T12:28:13.602Z,30.16
2023-05-10T12:29:17.875Z,29.27
2023-05-10T12:30:24.964Z,29.36
2023-05-10T12:31:27.734Z,29.02
2023-05-10T12:32:42.572Z,28.82
2023-05-10T12:33:46.282Z,28.95
2023-05-10T12:34:49.164Z,29.18
2023-05-10T12:35:54.265Z,29.20
2023-05-10T12:36:56.842Z,29.45
2023-05-10T12:37:59.897Z,29.62
2023-05-10T12:39:05.907Z,29.40
2023-05-10T12:40:10.426Z,29.29
2023-05-10T12:41:14.575Z,29.02
2023-05-10T12:42:17.589Z,29.13
2023-05-10T12:43:19.954Z,29.18
2023-05-10T12:44:22.353Z,28.97
2023-05-10T12:45:25.027Z,28.65
2023-05-10T12:46:29.128Z,28.11
2023-05-10T12:47:31.617Z,27.71
2023-05-10T12:48:35.106Z,28.50
2023-05-10T12:49:37.395Z,29.08
2023-05-10T12:50:39.686Z,29.05
2023-05-10T12:51:42.314Z,29.15
2023-05-10T12:52:44.569Z,29.36
2023-05-10T12:53:49.726Z,29.50
2023-05-10T12:54:52.140Z,29.60
2023-05-10T12:55:54.918Z,29.79
2023-05-10T12:56:57.531Z,29.71
2023-05-10T12:57:59.854Z,29.57
2023-05-10T12:59:02.164Z,29.97
2023-05-10T13:00:06.367Z,30.13
2023-05-10T13:01:09.594Z,30.50
2023-05-10T13:02:11.880Z,30.64
2023-05-10T13:03:14.620Z,30.84
2023-05-10T13:04:16.959Z,30.73
2023-05-10T13:05:19.349Z,30.07
2023-05-10T13:06:21.804Z,29.87
2023-05-10T13:07:24.193Z,29.63
2023-05-10T13:08:26.583Z,29.68
2023-05-10T13:09:31.966Z,29.29
2023-05-10T13:10:34.368Z,29.20
2023-05-10T13:11:36.623Z,29.13
2023-05-10T13:12:38.989Z,28.81
2023-05-10T13:13:41.324Z,29.27
2023-05-10T13:14:44.022Z,29.74
2023-05-10T13:15:46.237Z,29.35
2023-05-10T13:16:48.781Z,28.78
2023-05-10T13:17:51.319Z,28.88
2023-05-10T13:18:53.605Z,29.14
2023-05-10T13:19:56.054Z,29.92
2023-05-10T13:20:58.518Z,29.80
2023-05-10T13:22:00.821Z,30.01
2023-05-10T13:23:03.695Z,30.00
2023-05-10T13:24:06.719Z,30.06
2023-05-10T13:25:09.537Z,30.44
2023-05-10T13:26:11.956Z,30.13
2023-05-10T13:27:14.321Z,29.50
2023-05-10T13:28:16.499Z,29.51
2023-05-10T13:29:19.185Z,28.99
2023-05-10T13:30:21.585Z,28.93
2023-05-10T13:31:23.848Z,29.84
2023-05-10T13:32:27.194Z,30.19
2023-05-10T13:33:29.424Z,30.09
2023-05-10T13:34:31.659Z,29.96
2023-05-10T13:35:34.014Z,29.95
2023-05-10T13:36:36.257Z,29.73
2023-05-10T13:37:39.228Z,29.71
2023-05-10T13:38:41.438Z,29.45
2023-05-10T13:39:43.757Z,28.94
2023-05-10T13:40:46.218Z,29.63
2023-05-10T13:41:48.647Z,29.59
2023-05-10T13:42:51.383Z,29.46
2023-05-10T13:43:53.616Z,29.52
2023-05-10T13:44:55.816Z,29.93
2023-05-10T13:45:58.261Z,30.12
2023-05-10T13:47:00.821Z,29.92
2023-05-10T13:48:03.587Z,29.68
2023-05-10T13:49:05.989Z,29.62
2023-05-10T13:50:08.840Z,30.27
2023-05-10T13:51:11.066Z,29.88
2023-05-10T13:52:13.505Z,29.73
2023-05-10T13:53:15.981Z,29.95
2023-05-10T13:54:20.529Z,30.17